Time;durP1;ratioP1;P1;durP2;ratioP2;P2;SDS_P1;SDS_P2;PMS_P1;PMS_P2;Temp;Humidity;BMP_temperature;BMP_pressure;BME280_temperature;BME280_humidity;BME280_pressure;Samples;Min_cycle;Max_cycle;Signal;HPM_P1;HPM_P2
2021/07/22 00:02:09;;;;;;;19.70;10.97;;;19.50;99.90;;;;;;5029918;28;20663;-71
2021/07/22 00:04:35;;;;;;;16.70;10.50;;;19.50;99.90;;;;;;5031304;28;20558;-71
2021/07/22 00:07:00;;;;;;;19.93;11.50;;;19.40;99.90;;;;;;5032483;28;20185;-72
2021/07/22 00:09:26;;;;;;;17.00;10.70;;;19.40;99.90;;;;;;5031148;28;20644;-72
2021/07/22 00:11:52;;;;;;;18.93;11.13;;;19.40;99.90;;;;;;5033085;28;20181;-72
2021/07/22 00:14:18;;;;;;;19.13;10.93;;;19.30;99.90;;;;;;5029612;28;20191;-71
2021/07/22 00:16:45;;;;;;;18.50;10.97;;;19.10;99.90;;;;;;5030706;28;20212;-71
2021/07/22 00:19:12;;;;;;;17.33;10.87;;;19.10;99.90;;;;;;5031147;28;20624;-71
2021/07/22 00:21:38;;;;;;;18.40;11.33;;;19.00;99.90;;;;;;5032020;28;20222;-72
2021/07/22 00:24:05;;;;;;;19.47;11.50;;;19.00;99.90;;;;;;5033076;28;20627;-71
2021/07/22 00:26:30;;;;;;;18.83;10.73;;;18.90;99.90;;;;;;5030491;28;20231;-72
2021/07/22 00:28:59;;;;;;;19.83;11.37;;;18.90;99.90;;;;;;5030155;28;20556;-72
2021/07/22 00:31:25;;;;;;;16.53;10.67;;;18.80;99.90;;;;;;5033476;28;20213;-71
2021/07/22 00:33:51;;;;;;;22.20;11.63;;;18.80;99.90;;;;;;5050330;28;20216;-72
2021/07/22 00:36:17;;;;;;;17.90;11.40;;;18.80;99.90;;;;;;5051725;28;20268;-72
2021/07/22 00:38:43;;;;;;;19.33;11.73;;;18.90;99.90;;;;;;5048412;28;20186;-71
2021/07/22 00:41:12;;;;;;;18.73;10.60;;;18.90;99.90;;;;;;5017958;28;20639;-71
2021/07/22 00:43:40;;;;;;;18.57;11.70;;;18.80;99.90;;;;;;5031899;28;20204;-71
2021/07/22 00:46:07;;;;;;;19.57;11.87;;;18.80;99.90;;;;;;5032995;28;20216;-71
2021/07/22 00:48:33;;;;;;;20.27;11.87;;;18.90;99.90;;;;;;5030752;28;20215;-72
2021/07/22 00:50:59;;;;;;;20.97;11.87;;;18.90;99.90;;;;;;5033258;28;20181;-72
2021/07/22 00:53:25;;;;;;;17.57;11.23;;;18.80;99.90;;;;;;5017651;28;20169;-72
2021/07/22 00:55:55;;;;;;;18.00;11.70;;;18.90;99.90;;;;;;5031024;28;20181;-72
2021/07/22 00:58:21;;;;;;;22.90;12.13;;;18.90;99.90;;;;;;5051022;28;20243;-72
2021/07/22 01:00:47;;;;;;;20.77;12.20;;;19.00;99.90;;;;;;5031379;28;20208;-72
2021/07/22 01:03:14;;;;;;;20.77;11.83;;;19.00;99.90;;;;;;5034015;28;20924;-72
2021/07/22 01:05:39;;;;;;;19.37;12.17;;;18.90;99.90;;;;;;5035061;28;20191;-72
2021/07/22 01:08:05;;;;;;;21.70;12.80;;;18.90;99.90;;;;;;5049731;28;20188;-72
2021/07/22 01:10:31;;;;;;;19.93;11.93;;;18.90;99.90;;;;;;5054586;28;20187;-72
2021/07/22 01:12:59;;;;;;;21.63;12.80;;;18.80;99.90;;;;;;5033436;28;20200;-72
2021/07/22 01:15:30;;;;;;;19.00;12.03;;;18.70;99.90;;;;;;5050782;28;20270;-72
2021/07/22 01:17:56;;;;;;;19.17;11.43;;;18.70;99.90;;;;;;5050312;28;20187;-71
2021/07/22 01:20:24;;;;;;;20.53;12.33;;;18.70;99.90;;;;;;5049883;28;20187;-71
2021/07/22 01:22:57;;;;;;;19.67;12.63;;;18.60;99.90;;;;;;5033878;28;20181;-71
2021/07/22 01:25:29;;;;;;;20.83;12.47;;;18.60;99.90;;;;;;5047868;28;20800;-70
2021/07/22 01:27:56;;;;;;;18.13;11.70;;;18.60;99.90;;;;;;5050293;28;20176;-71
2021/07/22 01:30:22;;;;;;;19.30;11.93;;;18.50;99.90;;;;;;5049039;28;20173;-71
2021/07/22 01:32:48;;;;;;;18.60;11.70;;;18.50;99.90;;;;;;5032493;28;20265;-71
2021/07/22 01:35:14;;;;;;;21.17;12.33;;;18.40;99.90;;;;;;5032596;28;20660;-71
2021/07/22 01:37:43;;;;;;;18.83;12.23;;;18.50;99.90;;;;;;5032539;28;20188;-71
2021/07/22 01:40:12;;;;;;;20.17;11.73;;;18.50;99.90;;;;;;5049837;28;20183;-71
2021/07/22 01:42:38;;;;;;;19.40;11.73;;;18.50;99.90;;;;;;5048367;28;20662;-71
2021/07/22 01:45:06;;;;;;;19.37;12.93;;;18.50;99.90;;;;;;5033015;28;20188;-71
2021/07/22 01:47:40;;;;;;;20.13;11.80;;;18.40;99.90;;;;;;5045909;28;20226;-71
2021/07/22 01:50:07;;;;;;;19.83;12.27;;;18.50;99.90;;;;;;5031584;28;20213;-70
2021/07/22 01:52:34;;;;;;;18.80;12.20;;;18.50;99.90;;;;;;5030678;28;20192;-71
2021/07/22 01:55:00;;;;;;;18.07;12.47;;;18.50;99.90;;;;;;5049934;28;20181;-70
2021/07/22 01:57:26;;;;;;;22.63;13.17;;;18.50;99.90;;;;;;5032579;28;20556;-71
2021/07/22 01:59:53;;;;;;;21.47;13.23;;;18.40;99.90;;;;;;5031617;28;20188;-72
2021/07/22 02:02:20;;;;;;;20.93;12.33;;;18.40;99.90;;;;;;5051342;28;20191;-72
2021/07/22 02:04:48;;;;;;;18.47;12.27;;;18.30;99.90;;;;;;5030986;28;20220;-72
2021/07/22 02:07:13;;;;;;;21.07;13.30;;;18.30;99.90;;;;;;5050201;28;20655;-72
2021/07/22 02:09:54;;;;;;;20.43;12.87;;;18.20;99.90;;;;;;5031769;28;20259;-72
2021/07/22 02:12:20;;;;;;;22.10;12.67;;;18.10;99.90;;;;;;5049837;28;20186;-71
2021/07/22 02:14:50;;;;;;;18.03;12.03;;;18.20;99.90;;;;;;5031486;28;20741;-72
2021/07/22 02:17:17;;;;;;;24.03;12.20;;;18.20;99.90;;;;;;5050937;28;20252;-72
2021/07/22 02:19:43;;;;;;;18.43;13.00;;;18.20;99.90;;;;;;5050922;28;20192;-72
2021/07/22 02:22:14;;;;;;;18.97;12.87;;;18.20;99.90;;;;;;5029234;28;20575;-72
2021/07/22 02:24:47;;;;;;;20.17;13.10;;;18.20;99.90;;;;;;5032878;28;20198;-72
2021/07/22 02:27:29;;;;;;;20.60;13.23;;;18.30;99.90;;;;;;5031591;28;20844;-72
2021/07/22 02:29:54;;;;;;;22.17;12.43;;;18.30;99.90;;;;;;5052038;28;20179;-72
2021/07/22 02:32:20;;;;;;;22.83;13.03;;;18.20;99.90;;;;;;5032676;28;20309;-72
2021/07/22 02:34:46;;;;;;;21.73;13.40;;;18.20;99.90;;;;;;5048858;28;20278;-72
2021/07/22 02:37:32;;;;;;;19.37;12.30;;;18.10;99.90;;;;;;5051787;28;20192;-72
2021/07/22 02:40:06;;;;;;;19.77;12.57;;;18.10;99.90;;;;;;5032501;28;20189;-72
2021/07/22 02:42:32;;;;;;;21.53;13.83;;;18.10;99.90;;;;;;5035280;28;20192;-72
2021/07/22 02:45:08;;;;;;;19.77;12.33;;;18.10;99.90;;;;;;5030791;28;20209;-71
2021/07/22 02:47:35;;;;;;;20.93;13.63;;;18.10;99.90;;;;;;5031322;28;20339;-71
2021/07/22 02:50:01;;;;;;;22.77;13.77;;;18.10;99.90;;;;;;5032012;28;20677;-72
2021/07/22 02:52:28;;;;;;;20.73;14.27;;;18.20;99.90;;;;;;5029957;28;20217;-71
2021/07/22 02:54:56;;;;;;;19.87;13.67;;;18.10;99.90;;;;;;5036325;28;20268;-71
2021/07/22 02:57:22;;;;;;;20.77;14.00;;;18.10;99.90;;;;;;5049628;28;20271;-71
2021/07/22 02:59:48;;;;;;;20.57;13.13;;;18.10;99.90;;;;;;5035223;28;20210;-71
2021/07/22 03:02:15;;;;;;;24.13;13.53;;;18.00;99.90;;;;;;5052585;28;20185;-72
2021/07/22 03:04:41;;;;;;;23.07;14.77;;;18.00;99.90;;;;;;5050899;28;20662;-71
2021/07/22 03:07:16;;;;;;;22.43;15.13;;;18.00;99.90;;;;;;5053281;28;20543;-71
2021/07/22 03:09:42;;;;;;;24.43;13.80;;;17.90;99.90;;;;;;5034192;28;20189;-71
2021/07/22 03:12:09;;;;;;;21.10;14.10;;;17.90;99.90;;;;;;5034396;28;20188;-71
2021/07/22 03:14:45;;;;;;;22.30;14.73;;;17.90;99.90;;;;;;5033615;28;20709;-71
2021/07/22 03:17:12;;;;;;;23.27;14.20;;;17.80;99.90;;;;;;5034048;28;20209;-72
2021/07/22 03:19:44;;;;;;;20.33;13.13;;;17.70;99.90;;;;;;5034544;28;20279;-72
2021/07/22 03:22:14;;;;;;;22.57;13.40;;;17.70;99.90;;;;;;5035055;28;20212;-72
2021/07/22 03:24:51;;;;;;;20.40;13.20;;;17.70;99.90;;;;;;5052440;28;20234;-72
2021/07/22 03:27:37;;;;;;;20.47;13.53;;;17.70;99.90;;;;;;5050566;28;20270;-72
2021/07/22 03:30:05;;;;;;;22.23;14.33;;;17.70;99.90;;;;;;5032745;28;20207;-71
2021/07/22 03:32:38;;;;;;;21.50;13.70;;;17.80;99.90;;;;;;5032282;28;20594;-72
2021/07/22 03:35:05;;;;;;;22.20;14.53;;;17.80;99.90;;;;;;5034438;28;20215;-72
2021/07/22 03:37:36;;;;;;;22.43;14.50;;;17.80;99.90;;;;;;5051514;28;20185;-71
2021/07/22 03:40:07;;;;;;;21.70;15.00;;;17.70;99.90;;;;;;5033985;28;20192;-72
2021/07/22 03:42:34;;;;;;;20.20;14.13;;;17.70;99.90;;;;;;5035343;28;20722;-72
2021/07/22 03:45:16;;;;;;;21.50;14.30;;;17.80;99.90;;;;;;5032876;28;20227;-71
2021/07/22 03:47:45;;;;;;;25.47;15.53;;;17.70;99.90;;;;;;5034205;28;20233;-71
2021/07/22 03:50:12;;;;;;;25.90;15.27;;;17.70;99.90;;;;;;5048651;28;20184;-72
2021/07/22 03:52:42;;;;;;;24.20;15.27;;;17.70;99.90;;;;;;5050705;28;20199;-72
2021/07/22 03:55:08;;;;;;;24.70;15.10;;;17.70;99.90;;;;;;5048569;28;20192;-72
2021/07/22 03:57:57;;;;;;;20.13;13.67;;;17.60;99.90;;;;;;5048796;28;20254;-71
2021/07/22 04:00:23;;;;;;;24.23;14.77;;;17.60;99.90;;;;;;5050987;28;20539;-71
2021/07/22 04:03:04;;;;;;;21.33;13.73;;;17.50;99.90;;;;;;5029837;28;20191;-71
2021/07/22 04:05:32;;;;;;;23.00;14.90;;;17.50;99.90;;;;;;5051448;28;20199;-71
2021/07/22 04:08:00;;;;;;;20.37;13.97;;;17.40;99.90;;;;;;5031941;28;20184;-71
2021/07/22 04:10:38;;;;;;;20.20;14.47;;;17.40;99.90;;;;;;5051083;28;20255;-72
2021/07/22 04:13:29;;;;;;;21.60;15.30;;;17.40;99.90;;;;;;5032086;28;20621;-72
2021/07/22 04:16:12;;;;;;;22.33;15.63;;;17.50;99.90;;;;;;5049884;28;20269;-72
2021/07/22 04:18:44;;;;;;;22.80;15.00;;;17.50;99.90;;;;;;5048441;28;20186;-72
2021/07/22 04:21:29;;;;;;;26.53;15.83;;;17.50;99.90;;;;;;5018833;28;20584;-72
2021/07/22 04:24:12;;;;;;;24.10;16.13;;;17.60;99.90;;;;;;5033535;28;20192;-72
2021/07/22 04:26:57;;;;;;;22.67;15.10;;;17.60;99.90;;;;;;5031552;28;20642;-71
2021/07/22 04:29:43;;;;;;;22.87;15.93;;;17.60;99.90;;;;;;5032140;28;20181;-71
2021/07/22 04:32:09;;;;;;;22.67;14.87;;;17.80;99.90;;;;;;5047288;28;20638;-71
2021/07/22 04:34:47;;;;;;;23.03;15.17;;;17.90;99.90;;;;;;5050813;28;20180;-72
2021/07/22 04:37:36;;;;;;;20.83;14.40;;;18.00;99.90;;;;;;5032058;28;20200;-72
2021/07/22 04:40:12;;;;;;;19.83;14.40;;;18.10;99.90;;;;;;5049806;28;20323;-72
2021/07/22 04:43:00;;;;;;;19.93;13.63;;;18.30;99.90;;;;;;5047375;28;20438;-71
2021/07/22 04:45:44;;;;;;;23.03;14.50;;;18.60;99.90;;;;;;5048422;28;20212;-71
2021/07/22 04:48:30;;;;;;;23.00;14.90;;;18.80;99.90;;;;;;5006428;28;1180905;-71
2021/07/22 04:51:28;;;;;;;23.60;14.00;;;19.20;99.90;;;;;;5008570;28;20200;-71
2021/07/22 04:54:07;;;;;;;24.03;13.73;;;19.60;99.90;;;;;;5049141;28;20264;-71
2021/07/22 04:56:33;;;;;;;22.67;13.97;;;19.60;99.90;;;;;;5053268;28;20267;-73
2021/07/22 04:58:59;;;;;;;22.03;14.13;;;19.60;99.90;;;;;;5049032;28;20235;-72
2021/07/22 05:01:28;;;;;;;20.50;14.17;;;19.50;99.90;;;;;;5049839;28;20223;-72
2021/07/22 05:03:54;;;;;;;21.93;14.70;;;19.50;99.90;;;;;;5050231;28;20216;-72
2021/07/22 05:06:26;;;;;;;19.80;13.43;;;19.40;99.90;;;;;;5048663;28;20214;-72
2021/07/22 05:09:10;;;;;;;23.80;14.07;;;19.20;99.90;;;;;;5049130;28;20186;-72
2021/07/22 05:11:59;;;;;;;19.87;14.17;;;19.20;99.90;;;;;;5050414;28;20720;-71
2021/07/22 05:14:57;;;;;;;21.83;14.27;;;19.20;99.90;;;;;;5030849;28;20667;-72
2021/07/22 05:17:38;;;;;;;22.43;14.33;;;19.30;99.90;;;;;;5031434;28;20217;-72
2021/07/22 05:20:24;;;;;;;21.30;13.43;;;19.50;99.90;;;;;;5050362;28;20706;-71
2021/07/22 05:23:01;;;;;;;20.27;14.07;;;19.70;99.90;;;;;;5050382;28;20557;-72
2021/07/22 05:25:53;;;;;;;21.87;13.43;;;20.10;99.90;;;;;;5018167;28;20311;-72
2021/07/22 05:28:30;;;;;;;20.97;13.97;;;20.80;99.90;;;;;;5032076;28;20228;-72
2021/07/22 05:31:13;;;;;;;25.03;14.67;;;21.20;99.90;;;;;;5032007;28;20174;-72
2021/07/22 05:33:57;;;;;;;22.63;13.97;;;20.90;99.90;;;;;;5046278;28;20264;-72
2021/07/22 05:36:46;;;;;;;25.73;14.50;;;20.60;99.90;;;;;;5021784;28;20191;-71
2021/07/22 05:39:32;;;;;;;22.63;15.57;;;20.50;99.90;;;;;;5046456;28;20240;-71
2021/07/22 05:41:57;;;;;;;21.57;14.70;;;20.60;99.90;;;;;;5049794;28;20569;-72
2021/07/22 05:44:23;;;;;;;24.30;14.60;;;20.60;99.90;;;;;;5014348;28;20222;-72
2021/07/22 05:46:49;;;;;;;22.07;14.70;;;20.80;99.90;;;;;;5049516;28;20305;-72
2021/07/22 05:49:14;;;;;;;22.03;14.70;;;21.10;99.90;;;;;;5050724;28;20278;-72
2021/07/22 05:51:40;;;;;;;20.63;13.80;;;21.50;99.90;;;;;;5047275;28;20757;-72
2021/07/22 05:54:09;;;;;;;22.97;14.87;;;22.60;99.90;;;;;;5049806;28;20184;-72
2021/07/22 05:56:35;;;;;;;20.93;13.63;;;23.80;99.90;;;;;;5047874;28;21216;-71
2021/07/22 05:59:01;;;;;;;22.23;13.63;;;25.00;99.90;;;;;;5049623;28;20184;-72
2021/07/22 06:01:27;;;;;;;19.80;13.40;;;26.10;99.90;;;;;;5054116;28;20193;-72
2021/07/22 06:03:53;;;;;;;27.13;14.87;;;27.00;99.90;;;;;;5047576;28;20321;-72
2021/07/22 06:06:19;;;;;;;25.52;14.93;;;27.90;99.90;;;;;;5030542;28;20653;-72
2021/07/22 06:08:44;;;;;;;26.65;15.85;;;28.60;99.90;;;;;;5046494;28;20709;-72
2021/07/22 06:11:12;;;;;;;30.83;20.13;;;29.10;99.90;;;;;;5049090;28;20234;-72
2021/07/22 06:13:38;;;;;;;30.75;20.92;;;29.70;99.90;;;;;;5053784;28;20219;-72
2021/07/22 06:16:11;;;;;;;35.70;20.77;;;30.00;99.90;;;;;;5048520;28;20550;-72
2021/07/22 06:18:38;;;;;;;43.25;21.70;;;30.30;99.90;;;;;;5049616;28;20180;-72
2021/07/22 06:21:04;;;;;;;33.53;20.98;;;30.30;99.90;;;;;;5049086;28;20631;-72
2021/07/22 06:23:30;;;;;;;33.03;20.90;;;30.30;99.90;;;;;;5049350;28;20190;-72
2021/07/22 06:26:00;;;;;;;33.30;20.42;;;30.20;99.90;;;;;;5048507;28;20215;-72
2021/07/22 06:28:26;;;;;;;33.90;20.73;;;30.40;99.90;;;;;;5048812;28;20192;-72
2021/07/22 06:30:53;;;;;;;32.63;19.77;;;30.40;99.90;;;;;;5050187;28;20295;-71
2021/07/22 06:33:19;;;;;;;33.13;20.58;;;30.60;99.90;;;;;;5047096;28;20673;-72
2021/07/22 06:35:45;;;;;;;33.90;20.75;;;30.40;99.90;;;;;;5048931;28;20322;-72
2021/07/22 06:38:13;;;;;;;36.70;20.95;;;30.60;99.90;;;;;;5048361;28;20192;-72
2021/07/22 06:40:41;;;;;;;33.25;20.83;;;31.00;99.90;;;;;;5047890;28;20190;-72
2021/07/22 06:43:10;;;;;;;35.22;20.38;;;31.10;99.90;;;;;;5032094;28;20192;-72
2021/07/22 06:45:38;;;;;;;38.85;22.05;;;31.40;99.90;;;;;;5046029;28;20290;-72
2021/07/22 06:48:04;;;;;;;32.63;20.27;;;31.90;99.90;;;;;;5049095;28;20569;-72
2021/07/22 06:50:30;;;;;;;37.10;21.42;;;32.20;99.90;;;;;;5048125;28;20658;-72
2021/07/22 06:52:56;;;;;;;41.72;23.13;;;32.50;99.80;;;;;;5031398;28;20280;-72
2021/07/22 06:55:22;;;;;;;40.72;22.67;;;32.60;98.50;;;;;;5047602;28;20263;-72
2021/07/22 06:57:50;;;;;;;42.88;23.83;;;32.60;98.30;;;;;;5031945;28;20214;-72
2021/07/22 07:00:16;;;;;;;45.92;24.80;;;32.40;98.60;;;;;;5046265;28;20192;-72
2021/07/22 07:02:42;;;;;;;42.33;24.92;;;32.50;97.30;;;;;;5032140;28;20181;-72
2021/07/22 07:05:08;;;;;;;41.67;25.40;;;32.10;97.60;;;;;;5047338;28;20203;-72
2021/07/22 07:07:34;;;;;;;44.90;25.95;;;32.30;97.40;;;;;;5048584;28;20180;-72
2021/07/22 07:10:00;;;;;;;43.80;26.25;;;32.70;97.10;;;;;;5030883;28;20246;-72
2021/07/22 07:12:26;;;;;;;42.20;24.90;;;32.30;97.00;;;;;;5030131;28;20231;-72
2021/07/22 07:14:52;;;;;;;44.25;26.55;;;32.60;97.00;;;;;;5048722;28;20191;-72
2021/07/22 07:17:18;;;;;;;52.13;27.48;;;33.00;96.70;;;;;;5046637;28;20187;-72
2021/07/22 07:19:44;;;;;;;43.90;26.30;;;33.10;96.00;;;;;;5030480;28;20200;-72
2021/07/22 07:22:09;;;;;;;41.20;26.98;;;33.50;96.20;;;;;;5047385;28;20190;-72
2021/07/22 07:24:35;;;;;;;41.63;26.98;;;33.30;95.50;;;;;;5048406;28;20762;-72
2021/07/22 07:27:01;;;;;;;41.95;26.85;;;34.30;94.60;;;;;;5049681;28;20180;-71
2021/07/22 07:29:27;;;;;;;39.25;27.38;;;35.30;92.10;;;;;;5045105;28;20299;-71
2021/07/22 07:31:58;;;;;;;40.55;26.30;;;35.30;90.80;;;;;;5047852;28;20185;-71
2021/07/22 07:34:23;;;;;;;42.50;27.45;;;35.50;90.50;;;;;;5040629;28;20192;-71
2021/07/22 07:36:49;;;;;;;37.70;26.13;;;35.80;90.00;;;;;;5029707;28;20192;-71
2021/07/22 07:39:16;;;;;;;41.75;27.83;;;35.80;87.50;;;;;;5033830;28;20207;-71
2021/07/22 07:41:42;;;;;;;40.45;26.70;;;36.40;87.90;;;;;;5047748;28;20268;-71
2021/07/22 07:44:09;;;;;;;38.45;25.23;;;36.30;84.40;;;;;;5051826;28;20226;-71
2021/07/22 07:46:35;;;;;;;40.05;26.35;;;36.60;83.20;;;;;;5049968;28;20216;-71
2021/07/22 07:49:00;;;;;;;42.70;27.45;;;36.90;82.60;;;;;;5051712;28;20550;-71
2021/07/22 07:51:26;;;;;;;41.60;27.42;;;37.10;80.10;;;;;;5055527;28;20249;-71
2021/07/22 07:53:52;;;;;;;43.47;27.63;;;37.30;78.80;;;;;;5048674;28;20192;-71
2021/07/22 07:56:18;;;;;;;41.95;27.40;;;37.50;78.30;;;;;;5053158;28;20591;-72
2021/07/22 07:58:44;;;;;;;41.88;26.48;;;37.60;75.80;;;;;;5049331;28;20276;-71
2021/07/22 08:01:10;;;;;;;40.67;27.27;;;37.20;74.80;;;;;;5052254;28;20280;-72
2021/07/22 08:03:36;;;;;;;41.92;27.75;;;37.30;74.20;;;;;;5050104;28;20193;-72
2021/07/22 08:06:02;;;;;;;43.72;26.92;;;38.30;73.30;;;;;;5033103;28;20218;-72
2021/07/22 08:08:28;;;;;;;39.60;25.23;;;38.30;71.00;;;;;;5034969;28;20263;-72
2021/07/22 08:10:58;;;;;;;39.53;26.42;;;38.80;70.10;;;;;;5033094;28;20197;-72
2021/07/22 08:13:24;;;;;;;38.38;24.70;;;38.40;71.00;;;;;;5052210;28;20242;-72
2021/07/22 08:15:50;;;;;;;37.08;24.80;;;38.40;70.00;;;;;;5050346;28;20192;-72
2021/07/22 08:18:16;;;;;;;39.13;24.30;;;39.10;67.70;;;;;;5049808;28;20188;-72
2021/07/22 08:20:42;;;;;;;36.85;24.27;;;40.10;66.50;;;;;;5052294;28;20176;-72
2021/07/22 08:23:08;;;;;;;38.42;25.02;;;38.70;67.00;;;;;;5033753;28;20194;-71
2021/07/22 08:25:36;;;;;;;35.47;24.10;;;38.70;66.80;;;;;;5052585;28;20643;-72
2021/07/22 08:28:02;;;;;;;30.10;20.10;;;39.50;65.40;;;;;;5050135;28;20172;-72
2021/07/22 08:30:28;;;;;;;33.22;21.10;;;39.70;63.00;;;;;;5050915;28;20180;-72
2021/07/22 08:32:53;;;;;;;35.85;23.63;;;40.50;61.00;;;;;;5049165;28;20666;-72
2021/07/22 08:35:19;;;;;;;33.28;21.23;;;40.50;60.80;;;;;;5050001;28;20195;-72
2021/07/22 08:37:45;;;;;;;33.85;23.00;;;40.80;59.90;;;;;;5050968;28;20275;-72
2021/07/22 08:40:11;;;;;;;31.55;21.25;;;40.60;59.40;;;;;;5050152;28;20315;-72
2021/07/22 08:42:40;;;;;;;27.90;20.52;;;41.70;57.30;;;;;;5034702;28;20180;-72
2021/07/22 08:45:07;;;;;;;27.63;19.42;;;41.80;55.50;;;;;;5044082;28;20642;-72
2021/07/22 08:47:36;;;;;;;31.85;20.70;;;42.00;54.90;;;;;;5060080;28;20266;-72
2021/07/22 08:50:03;;;;;;;29.55;20.88;;;41.50;55.80;;;;;;5049541;28;20188;-72
2021/07/22 08:52:29;;;;;;;26.77;17.60;;;41.00;55.90;;;;;;5071162;28;20653;-72
2021/07/22 08:54:54;;;;;;;24.15;15.88;;;39.90;54.90;;;;;;5072311;28;20186;-72
2021/07/22 08:57:29;;;;;;;30.23;19.10;;;38.50;56.30;;;;;;5069930;28;20187;-72
2021/07/22 08:59:57;;;;;;;28.95;19.98;;;38.40;56.20;;;;;;5071293;28;20232;-72
2021/07/22 09:02:23;;;;;;;37.80;23.67;;;38.30;57.80;;;;;;5065469;28;20194;-72
2021/07/22 09:04:59;;;;;;;33.95;21.95;;;39.50;58.00;;;;;;5070699;28;20183;-72
2021/07/22 09:07:26;;;;;;;28.20;19.50;;;40.10;56.00;;;;;;5069549;28;20836;-72
2021/07/22 09:10:11;;;;;;;26.92;19.13;;;38.80;56.60;;;;;;5053938;28;20176;-72
2021/07/22 09:12:46;;;;;;;30.42;20.73;;;39.00;56.60;;;;;;5070970;28;20298;-72
2021/07/22 09:15:34;;;;;;;28.42;20.27;;;39.10;54.40;;;;;;5050783;28;20988;-72
2021/07/22 09:18:21;;;;;;;33.33;23.67;;;40.00;56.30;;;;;;5071255;28;20198;-72
2021/07/22 09:20:46;;;;;;;32.83;21.92;;;40.70;54.50;;;;;;5068208;28;20175;-72
2021/07/22 09:23:18;;;;;;;32.15;21.30;;;41.20;55.40;;;;;;5071835;28;20682;-72
2021/07/22 09:25:47;;;;;;;28.92;17.92;;;40.40;56.20;;;;;;5069120;28;20239;-73
2021/07/22 09:28:14;;;;;;;27.42;18.95;;;40.70;54.50;;;;;;5071425;28;20188;-72
2021/07/22 09:30:57;;;;;;;27.63;18.42;;;39.20;55.40;;;;;;5071298;28;20192;-72
2021/07/22 09:33:41;;;;;;;28.08;18.58;;;37.90;57.10;;;;;;5070630;28;20184;-72
2021/07/22 09:36:28;;;;;;;23.35;15.23;;;38.90;57.00;;;;;;5072854;28;20198;-72
2021/07/22 09:39:14;;;;;;;29.25;16.23;;;40.00;54.60;;;;;;5050202;28;20184;-72
2021/07/22 09:41:40;;;;;;;23.88;15.18;;;40.70;53.70;;;;;;5071012;28;20207;-72
2021/07/22 09:44:06;;;;;;;23.45;16.15;;;40.50;54.30;;;;;;5067715;28;20222;-72
2021/07/22 09:46:41;;;;;;;48.17;19.35;;;40.30;53.80;;;;;;5069390;28;20207;-72
2021/07/22 09:49:08;;;;;;;30.00;16.35;;;40.20;55.10;;;;;;5067330;28;20224;-72
2021/07/22 09:51:34;;;;;;;24.95;14.50;;;39.70;54.20;;;;;;5051682;28;20641;-72
2021/07/22 09:54:07;;;;;;;26.40;17.00;;;40.20;54.90;;;;;;5070841;28;20189;-72
2021/07/22 09:56:40;;;;;;;30.10;20.52;;;37.60;55.70;;;;;;5059980;28;20635;-72
2021/07/22 09:59:08;;;;;;;33.67;20.27;;;36.90;58.30;;;;;;5052114;28;20689;-72
2021/07/22 10:02:03;;;;;;;25.80;16.42;;;38.60;57.70;;;;;;5067232;28;20188;-72
2021/07/22 10:04:31;;;;;;;21.55;13.00;;;39.10;58.10;;;;;;5067438;28;20200;-72
2021/07/22 10:06:59;;;;;;;21.98;13.38;;;38.30;57.70;;;;;;5068326;28;20212;-72
2021/07/22 10:09:28;;;;;;;23.00;13.18;;;39.30;55.80;;;;;;5069039;28;20179;-72
2021/07/22 10:11:54;;;;;;;21.92;14.93;;;40.00;55.30;;;;;;5067397;28;20196;-72
2021/07/22 10:14:20;;;;;;;23.67;15.75;;;39.20;54.40;;;;;;5069652;28;20547;-72
2021/07/22 10:16:48;;;;;;;21.33;15.13;;;39.70;54.90;;;;;;5069308;28;20192;-72
2021/07/22 10:19:16;;;;;;;21.75;13.13;;;40.70;54.60;;;;;;5068509;28;20217;-73
2021/07/22 10:21:42;;;;;;;20.40;12.38;;;41.10;52.50;;;;;;5046598;28;20194;-73
2021/07/22 10:24:09;;;;;;;18.77;9.93;;;41.40;51.40;;;;;;5068361;28;21657;-72
2021/07/22 10:26:40;;;;;;;17.20;10.43;;;40.40;51.00;;;;;;5068927;28;20207;-71
2021/07/22 10:29:06;;;;;;;18.50;10.93;;;39.90;55.20;;;;;;5067313;28;20267;-72
2021/07/22 10:31:40;;;;;;;17.15;10.70;;;39.60;53.00;;;;;;5069093;28;20192;-71
2021/07/22 10:34:10;;;;;;;18.08;10.90;;;38.50;56.40;;;;;;5065295;28;20196;-71
2021/07/22 10:36:37;;;;;;;16.50;9.90;;;38.20;56.10;;;;;;5067420;28;20649;-71
2021/07/22 10:39:03;;;;;;;18.52;12.68;;;38.50;56.50;;;;;;5070668;28;20188;-71
2021/07/22 10:41:37;;;;;;;19.05;10.23;;;39.50;54.50;;;;;;5067126;28;20199;-72
2021/07/22 10:44:05;;;;;;;17.30;11.23;;;40.00;54.50;;;;;;5064743;28;20226;-72
2021/07/22 10:46:56;;;;;;;17.95;10.30;;;39.80;54.20;;;;;;5067597;28;20214;-72
2021/07/22 10:49:43;;;;;;;18.15;11.25;;;40.30;52.60;;;;;;5069801;28;20184;-72
2021/07/22 10:52:11;;;;;;;16.42;10.93;;;38.90;54.00;;;;;;5067323;28;20270;-72
2021/07/22 10:55:03;;;;;;;18.35;10.68;;;38.20;55.30;;;;;;5069326;28;20634;-72
2021/07/22 10:57:37;;;;;;;24.35;12.30;;;39.50;53.80;;;;;;5061961;28;20188;-72
2021/07/22 11:00:07;;;;;;;19.63;11.90;;;39.70;55.00;;;;;;5068227;28;20250;-72
2021/07/22 11:02:46;;;;;;;19.17;11.50;;;39.70;53.70;;;;;;5070751;28;20287;-73
2021/07/22 11:05:21;;;;;;;24.67;13.40;;;39.80;53.60;;;;;;5066467;28;20199;-72
2021/07/22 11:08:16;;;;;;;22.23;12.23;;;39.60;53.40;;;;;;5070098;28;20206;-72
2021/07/22 11:10:52;;;;;;;18.23;11.07;;;39.10;54.50;;;;;;5063900;28;20179;-72
2021/07/22 11:13:33;;;;;;;17.55;9.77;;;38.20;54.10;;;;;;5069685;28;20186;-71
2021/07/22 11:16:01;;;;;;;17.52;10.35;;;37.10;55.80;;;;;;5071194;28;20190;-72
2021/07/22 11:18:42;;;;;;;16.30;9.57;;;38.20;55.30;;;;;;5073383;28;20184;-71
2021/07/22 11:21:28;;;;;;;17.08;10.50;;;38.40;54.10;;;;;;5072448;28;20187;-72
2021/07/22 11:23:59;;;;;;;21.77;12.35;;;38.60;54.50;;;;;;5054751;28;20219;-72
2021/07/22 11:26:26;;;;;;;17.95;11.18;;;38.20;55.90;;;;;;5056084;28;20200;-72
2021/07/22 11:28:52;;;;;;;19.00;11.07;;;38.60;55.90;;;;;;5069330;28;20599;-72
2021/07/22 11:31:18;;;;;;;18.05;10.63;;;38.20;54.60;;;;;;5055678;28;20235;-72
2021/07/22 11:33:44;;;;;;;17.85;11.82;;;36.70;57.30;;;;;;5069944;28;20196;-72
2021/07/22 11:36:17;;;;;;;16.17;10.70;;;35.00;59.00;;;;;;5051476;28;20191;-72
2021/07/22 11:38:53;;;;;;;20.27;10.93;;;35.60;58.90;;;;;;5070192;28;20192;-72
2021/07/22 11:41:20;;;;;;;15.65;9.65;;;34.50;59.40;;;;;;5072075;28;20584;-72
2021/07/22 11:43:52;;;;;;;14.40;9.57;;;35.50;59.70;;;;;;5055718;28;20428;-72
2021/07/22 11:46:38;;;;;;;14.93;9.15;;;36.20;61.10;;;;;;5069553;28;20734;-72
2021/07/22 11:49:09;;;;;;;15.73;9.70;;;37.50;58.80;;;;;;5072592;28;20211;-72
2021/07/22 11:51:36;;;;;;;17.13;9.57;;;37.80;58.70;;;;;;5069316;28;20555;-72
2021/07/22 11:54:02;;;;;;;15.02;8.80;;;38.20;58.30;;;;;;5072075;28;20179;-72
2021/07/22 11:56:35;;;;;;;14.65;8.80;;;37.60;57.60;;;;;;5070215;28;20287;-73
2021/07/22 11:59:07;;;;;;;15.75;9.25;;;37.60;57.60;;;;;;5053333;28;20195;-72
2021/07/22 12:01:35;;;;;;;13.73;8.38;;;37.50;57.30;;;;;;5072861;28;20168;-72
2021/07/22 12:04:01;;;;;;;14.68;8.63;;;36.70;58.30;;;;;;5069609;28;20180;-72
2021/07/22 12:06:28;;;;;;;12.30;8.40;;;36.30;58.70;;;;;;5072259;28;20264;-72
2021/07/22 12:09:20;;;;;;;13.38;7.90;;;36.90;59.10;;;;;;5070259;28;20736;-72
2021/07/22 12:11:48;;;;;;;12.23;8.05;;;37.40;60.10;;;;;;5067856;28;20199;-72
2021/07/22 12:14:34;;;;;;;13.13;8.05;;;38.10;57.50;;;;;;5070414;28;20699;-72
2021/07/22 12:17:11;;;;;;;13.48;8.25;;;38.10;58.40;;;;;;5071322;28;20202;-72
2021/07/22 12:19:39;;;;;;;12.00;7.43;;;37.70;58.40;;;;;;5070908;28;20653;-72
2021/07/22 12:22:27;;;;;;;12.15;7.68;;;36.20;57.20;;;;;;5053218;28;20211;-72
2021/07/22 12:24:54;;;;;;;13.18;8.35;;;34.80;60.20;;;;;;5072450;28;20586;-72
2021/07/22 12:27:37;;;;;;;15.63;8.27;;;33.60;62.70;;;;;;5068566;28;20184;-72
2021/07/22 12:30:18;;;;;;;12.80;8.07;;;32.80;68.30;;;;;;5071738;28;20279;-72
2021/07/22 12:32:47;;;;;;;14.25;9.10;;;32.20;71.90;;;;;;5070288;28;20543;-72
2021/07/22 12:35:40;;;;;;;13.32;8.05;;;31.90;67.00;;;;;;5071942;28;20184;-72
2021/07/22 12:38:09;;;;;;;14.00;8.63;;;31.50;68.30;;;;;;5072416;28;20199;-72
2021/07/22 12:40:34;;;;;;;13.45;8.50;;;31.20;68.40;;;;;;5053499;28;20215;-72
2021/07/22 12:43:01;;;;;;;14.40;8.77;;;31.00;70.00;;;;;;5072582;28;20203;-72
2021/07/22 12:45:27;;;;;;;17.30;8.35;;;30.70;69.90;;;;;;5067455;28;20697;-72
2021/07/22 12:47:52;;;;;;;13.07;7.80;;;29.90;71.10;;;;;;5072310;28;20233;-72